OLBA/BEY METAR and TAF weather

Enter ICAO airport designator
Station Type Date Time Source
OLBA METAR 2021/07/29 17:00 UTC NOAA

OLBA 291700Z 21011KT CAVOK 30/23 Q1005 NOSIG


Station Type Date Time Source
OLBA Decoded METAR 2021/07/29 17:00 UTC NOAA

Beyrouth Aeroport , Lebanon (OLBA) 33-49N 035-29E 19M
Jul 29, 2021 - 01:00 PM EDT / 2021.07.29 1700 UTC
Wind: from the SSW (210 degrees) at 13 MPH (11 KT):0
Visibility: greater than 7 mile(s):0
Temperature: 86 F (30 C)
Heat index: 93.4 F (34.1 C):1
Dew Point: 73 F (23 C)
Relative Humidity: 66%
Pressure (altimeter): 29.68 in. Hg (1005 hPa)
ob: OLBA 291700Z 21011KT CAVOK 30/23 Q1005 NOSIG
cycle: 17

Station Type Date Time Source
OLBA TAF 2021/07/29 18:45 UTC NOAA

TAF OLBA 291600Z 2918/3024 14003KT CAVOK
BECMG 3006/3008 23012KT 8000 SCT027
BECMG 3018/3020 14003KT CAVOK

Example: see airport list